KBMG/BMG METAR and TAF weather

Enter ICAO airport designator
Station Type Date Time Source
KBMG METAR 2021/07/29 02:53 UTC NOAA

KBMG 290253Z AUTO 00000KT 7SM CLR 23/22 A3004 RMK AO2 SLP163 T02330217 53005


Station Type Date Time Source
KBMG Decoded METAR 2021/07/29 02:53 UTC NOAA

MONROE COUNTY AIRPORT, IN, United States (KBMG) 39-09N 086-37W 257M
Jul 28, 2021 - 10:53 PM EDT / 2021.07.29 0253 UTC
Wind: Calm:0
Visibility: 7 mile(s):0
Sky conditions: clear
Temperature: 73.9 F (23.3 C)
Dew Point: 71.1 F (21.7 C)
Relative Humidity: 90%
Pressure (altimeter): 30.04 in. Hg (1017 hPa)
Pressure tendency: 0.01 inches (0.5 hPa) higher than three hours ago
ob: KBMG 290253Z AUTO 00000KT 7SM CLR 23/22 A3004 RMK AO2 SLP163 T02330217 53005
cycle: 3

Station Type Date Time Source
KBMG TAF 2021/07/28 18:22 UTC NOAA

TAF KBMG 281720Z 2818/2918 30005KT P6SM FEW040 FEW200
FM291300 23005KT P6SM FEW250

Example: see airport list